createdAt,value
2022-12-27T00:01:12.555Z,20.13
2022-12-27T00:03:43.684Z,20.63
2022-12-27T00:06:14.854Z,18.57
2022-12-27T00:09:13.125Z,18.90
2022-12-27T00:11:41.464Z,24.20
2022-12-27T00:14:13.133Z,17.43
2022-12-27T00:16:44.585Z,20.53
2022-12-27T00:19:14.406Z,25.40
2022-12-27T00:21:42.835Z,19.53
2022-12-27T00:24:12.296Z,21.73
2022-12-27T00:26:59.201Z,21.17
2022-12-27T00:29:30.713Z,20.30
2022-12-27T00:31:59.134Z,20.97
2022-12-27T00:34:28.955Z,22.40
2022-12-27T00:36:58.433Z,25.93
2022-12-27T00:39:26.846Z,24.33
2022-12-27T00:41:55.241Z,23.57
2022-12-27T00:44:24.506Z,21.50
2022-12-27T00:46:59.935Z,24.53
2022-12-27T00:49:29.669Z,27.50
2022-12-27T00:51:58.027Z,20.77
2022-12-27T00:54:26.360Z,25.13
2022-12-27T00:56:55.333Z,21.93
2022-12-27T00:59:23.666Z,27.30
2022-12-27T01:01:52.074Z,26.07
2022-12-27T01:04:20.501Z,27.40
2022-12-27T01:06:50.192Z,24.77
2022-12-27T01:09:18.506Z,27.40
2022-12-27T01:11:46.885Z,27.43
2022-12-27T01:14:15.158Z,23.80
2022-12-27T01:16:44.345Z,27.63
2022-12-27T01:19:12.998Z,25.53
2022-12-27T01:21:41.374Z,27.20
2022-12-27T01:24:11.188Z,28.30
2022-12-27T01:26:39.535Z,27.60
2022-12-27T01:29:07.980Z,29.77
2022-12-27T01:31:37.197Z,25.67
2022-12-27T01:34:05.748Z,23.00
2022-12-27T01:36:34.174Z,24.50
2022-12-27T01:39:02.654Z,24.20
2022-12-27T01:41:52.657Z,28.73
2022-12-27T01:45:11.818Z,26.67
2022-12-27T01:47:49.589Z,26.90
2022-12-27T01:50:24.454Z,28.37
2022-12-27T01:53:06.665Z,24.90
2022-12-27T01:55:39.414Z,31.83
2022-12-27T01:58:13.857Z,30.33
2022-12-27T02:00:44.673Z,25.60
2022-12-27T02:03:14.657Z,34.70
2022-12-27T02:05:43.585Z,29.40
2022-12-27T02:08:37.611Z,29.50
2022-12-27T02:11:06.940Z,28.27
2022-12-27T02:13:39.399Z,33.73
2022-12-27T02:16:13.161Z,30.33
2022-12-27T02:18:41.839Z,33.30
2022-12-27T02:21:44.983Z,29.60
2022-12-27T02:24:51.607Z,31.00
2022-12-27T02:27:40.069Z,29.27
2022-12-27T02:30:13.052Z,28.47
2022-12-27T02:32:46.896Z,22.43
2022-12-27T02:35:19.768Z,24.67
2022-12-27T02:37:55.171Z,26.83
2022-12-27T02:40:42.706Z,27.10
2022-12-27T02:43:29.397Z,24.33
2022-12-27T02:46:23.942Z,27.87
2022-12-27T02:49:11.708Z,29.47
2022-12-27T02:55:27.045Z,29.93
2022-12-27T02:58:07.009Z,26.87
2022-12-27T03:01:03.100Z,24.53
2022-12-27T03:04:19.024Z,28.30
2022-12-27T03:07:02.477Z,27.70
2022-12-27T03:10:03.662Z,32.10
2022-12-27T03:13:09.483Z,27.70
2022-12-27T03:16:11.694Z,25.00
2022-12-27T03:18:55.739Z,28.43
2022-12-27T03:21:46.672Z,27.77
2022-12-27T03:25:23.623Z,26.43
2022-12-27T03:28:07.789Z,22.80
2022-12-27T03:30:51.426Z,26.03
2022-12-27T03:33:20.599Z,23.87
2022-12-27T03:36:09.021Z,29.73
2022-12-27T03:38:46.997Z,24.33
2022-12-27T03:41:42.105Z,25.13
2022-12-27T03:44:25.528Z,28.57
2022-12-27T03:46:56.495Z,26.73
2022-12-27T03:49:31.693Z,26.40
2022-12-27T03:52:08.131Z,25.57
2022-12-27T03:54:40.235Z,24.60
2022-12-27T03:57:11.607Z,24.63
2022-12-27T03:59:40.378Z,22.90
2022-12-27T04:02:09.451Z,23.40
2022-12-27T04:04:39.258Z,22.97
2022-12-27T04:07:09.137Z,21.07
2022-12-27T04:09:54.955Z,24.43
2022-12-27T04:12:40.370Z,19.60
2022-12-27T04:15:26.996Z,22.90
2022-12-27T04:18:12.449Z,22.33
2022-12-27T04:20:58.175Z,20.07
2022-12-27T04:24:10.412Z,19.73
2022-12-27T04:26:55.956Z,18.37
2022-12-27T04:30:06.828Z,18.03
2022-12-27T04:32:52.943Z,25.20
2022-12-27T04:35:21.313Z,23.43
2022-12-27T04:37:49.679Z,22.00
2022-12-27T04:40:36.673Z,21.90
2022-12-27T04:43:26.604Z,18.53
2022-12-27T04:49:22.183Z,19.50
2022-12-27T04:52:08.067Z,24.30
2022-12-27T04:54:53.458Z,20.30
2022-12-27T04:57:23.214Z,15.53
2022-12-27T05:00:10.287Z,14.60
2022-12-27T05:02:39.114Z,19.57
2022-12-27T05:05:09.733Z,19.80
2022-12-27T05:07:56.222Z,16.60
2022-12-27T05:10:42.087Z,15.50
2022-12-27T05:13:30.840Z,15.77
2022-12-27T05:15:59.345Z,16.17
2022-12-27T05:18:28.441Z,19.13
2022-12-27T05:20:56.913Z,14.73
2022-12-27T05:23:42.429Z,13.63
2022-12-27T05:26:11.835Z,14.27
2022-12-27T05:28:41.542Z,13.47
2022-12-27T05:31:10.155Z,14.50
2022-12-27T05:33:39.523Z,15.77
2022-12-27T05:36:09.328Z,15.23
2022-12-27T05:38:38.953Z,15.03
2022-12-27T05:41:07.773Z,14.60
2022-12-27T05:43:36.778Z,14.83
2022-12-27T05:46:09.481Z,13.97
2022-12-27T05:48:41.395Z,20.50
2022-12-27T05:51:11.750Z,24.33
2022-12-27T05:53:44.212Z,22.57
2022-12-27T05:56:16.237Z,23.93
2022-12-27T05:58:44.981Z,27.73
2022-12-27T06:01:16.545Z,27.70
2022-12-27T06:03:46.274Z,27.30
2022-12-27T06:06:15.245Z,31.00
2022-12-27T06:08:43.541Z,33.73
2022-12-27T06:11:14.540Z,30.80
2022-12-27T06:13:44.214Z,46.80
2022-12-27T06:16:15.479Z,40.90
2022-12-27T06:18:44.180Z,39.37
2022-12-27T06:21:14.264Z,57.77
2022-12-27T06:23:45.213Z,47.23
2022-12-27T06:26:16.543Z,38.87
2022-12-27T06:28:44.996Z,44.20
2022-12-27T06:31:13.857Z,44.33
2022-12-27T06:33:43.546Z,43.60
2022-12-27T06:36:13.493Z,40.97
2022-12-27T06:38:42.714Z,46.80
2022-12-27T06:41:12.931Z,36.90
2022-12-27T06:43:41.917Z,28.70
2022-12-27T06:46:17.588Z,21.70
2022-12-27T06:49:37.063Z,17.97
2022-12-27T06:52:07.108Z,32.60
2022-12-27T06:55:11.260Z,16.70
2022-12-27T06:57:39.605Z,14.93
2022-12-27T07:00:09.106Z,16.87
2022-12-27T07:02:39.662Z,17.93
2022-12-27T07:05:09.068Z,21.57
2022-12-27T07:07:38.781Z,22.23
2022-12-27T07:10:08.430Z,19.40
2022-12-27T07:13:01.457Z,14.30
2022-12-27T07:15:29.902Z,18.77
2022-12-27T07:17:58.232Z,16.50
2022-12-27T07:20:26.572Z,20.67
2022-12-27T07:22:58.859Z,19.20
2022-12-27T07:25:43.082Z,17.53
2022-12-27T07:28:11.467Z,19.33
2022-12-27T07:30:41.776Z,22.63
2022-12-27T07:33:10.425Z,23.03
2022-12-27T07:35:43.550Z,18.37
2022-12-27T07:38:14.927Z,26.47
2022-12-27T07:40:43.314Z,31.47
2022-12-27T07:43:11.636Z,29.23
2022-12-27T07:45:39.987Z,30.60
2022-12-27T07:48:08.391Z,32.50
2022-12-27T07:51:01.460Z,41.40
2022-12-27T07:53:42.305Z,39.90
2022-12-27T07:56:12.651Z,43.90
2022-12-27T07:58:42.421Z,41.17
2022-12-27T08:01:12.947Z,48.53
2022-12-27T08:03:41.986Z,55.27
2022-12-27T08:06:21.386Z,49.50
2022-12-27T08:08:52.578Z,49.03
2022-12-27T08:12:13.498Z,53.90
2022-12-27T08:14:42.239Z,57.97
2022-12-27T08:17:18.421Z,58.03
2022-12-27T08:19:47.101Z,54.17
2022-12-27T08:22:16.893Z,53.97
2022-12-27T08:24:46.675Z,59.23
2022-12-27T08:27:20.772Z,62.23
2022-12-27T08:29:49.304Z,64.60
2022-12-27T08:32:17.851Z,56.00
2022-12-27T08:34:46.145Z,53.07
2022-12-27T08:37:15.888Z,55.93
2022-12-27T08:39:44.314Z,56.03
2022-12-27T08:42:14.693Z,48.73
2022-12-27T08:44:43.267Z,49.47
2022-12-27T08:47:11.612Z,50.20
2022-12-27T08:49:39.971Z,45.10
2022-12-27T08:52:08.399Z,42.30
2022-12-27T08:54:36.743Z,39.13
2022-12-27T08:57:05.284Z,43.63
2022-12-27T08:59:35.064Z,45.57
2022-12-27T09:02:03.543Z,39.80
2022-12-27T09:04:31.984Z,38.87
2022-12-27T09:07:00.372Z,37.57
2022-12-27T09:09:28.774Z,32.40
2022-12-27T09:11:57.326Z,32.33
2022-12-27T09:14:25.672Z,30.00
2022-12-27T09:16:56.504Z,32.33
2022-12-27T09:19:24.815Z,35.60
2022-12-27T09:21:53.132Z,29.40
2022-12-27T09:24:21.607Z,27.57
2022-12-27T09:26:50.042Z,31.73
2022-12-27T09:29:19.709Z,27.47
2022-12-27T09:31:48.087Z,27.10
2022-12-27T09:34:17.865Z,25.97
2022-12-27T09:36:46.235Z,23.37
2022-12-27T09:39:15.473Z,23.90
2022-12-27T09:42:45.104Z,22.60
2022-12-27T09:44:51.004Z,28.40
2022-12-27T09:47:51.296Z,31.53
2022-12-27T09:50:26.544Z,35.83
2022-12-27T09:53:01.534Z,38.30
2022-12-27T09:55:39.106Z,33.20
2022-12-27T09:58:19.419Z,34.20
2022-12-27T10:00:47.792Z,37.47
2022-12-27T10:03:16.168Z,40.10
2022-12-27T10:06:08.092Z,35.67
2022-12-27T10:08:45.784Z,35.27
2022-12-27T10:11:38.757Z,34.53
2022-12-27T10:14:31.198Z,37.27
2022-12-27T10:17:09.369Z,41.53
2022-12-27T10:19:46.085Z,39.53
2022-12-27T10:22:25.990Z,42.33
2022-12-27T10:24:58.409Z,42.73
2022-12-27T10:27:30.104Z,42.97
2022-12-27T10:30:23.719Z,41.40
2022-12-27T10:32:53.722Z,45.40
2022-12-27T10:35:24.291Z,39.70
2022-12-27T10:37:54.994Z,38.20
2022-12-27T10:40:34.217Z,42.67
2022-12-27T10:43:05.330Z,37.83
2022-12-27T10:45:36.503Z,40.17
2022-12-27T10:48:19.957Z,80.67
2022-12-27T10:50:54.719Z,67.63
2022-12-27T10:53:39.331Z,39.53
2022-12-27T10:56:17.956Z,36.23
2022-12-27T10:58:52.977Z,41.37
2022-12-27T11:01:27.141Z,41.70
2022-12-27T11:04:26.568Z,37.20
2022-12-27T11:07:13.583Z,38.33
2022-12-27T11:09:50.383Z,39.00
2022-12-27T11:12:24.822Z,36.80
2022-12-27T11:14:58.688Z,39.13
2022-12-27T11:17:31.229Z,36.60
2022-12-27T11:20:02.529Z,35.73
2022-12-27T11:22:31.006Z,31.07
2022-12-27T11:25:01.966Z,34.53
2022-12-27T11:27:58.196Z,33.37
2022-12-27T11:30:30.774Z,29.60
2022-12-27T11:33:04.213Z,30.63
2022-12-27T11:35:34.498Z,30.10
2022-12-27T11:38:02.916Z,27.93
2022-12-27T11:40:35.931Z,26.10
2022-12-27T11:43:10.065Z,26.10
2022-12-27T11:45:41.739Z,24.57
2022-12-27T11:48:20.883Z,27.30
2022-12-27T11:51:00.825Z,28.97
2022-12-27T11:54:00.125Z,25.03
2022-12-27T11:56:31.876Z,22.87
2022-12-27T11:59:33.998Z,26.43
2022-12-27T12:02:34.301Z,21.07
2022-12-27T12:05:46.878Z,21.23
2022-12-27T12:08:41.206Z,18.73
2022-12-27T12:11:19.797Z,12.00
2022-12-27T12:14:11.138Z,26.70
2022-12-27T12:17:01.533Z,27.83
2022-12-27T12:20:01.833Z,13.73
2022-12-27T12:22:41.087Z,7.43
2022-12-27T12:25:32.922Z,7.77
2022-12-27T12:28:56.849Z,4.20
2022-12-27T12:31:44.341Z,4.77
2022-12-27T12:34:43.922Z,4.20
2022-12-27T12:37:27.122Z,4.90
2022-12-27T12:40:22.751Z,6.33
2022-12-27T12:43:02.599Z,5.33
2022-12-27T12:45:53.916Z,6.20
2022-12-27T12:48:40.920Z,5.43
2022-12-27T12:51:28.089Z,13.43
2022-12-27T12:54:08.728Z,6.17
2022-12-27T12:56:54.757Z,5.37
2022-12-27T12:59:40.098Z,5.13
2022-12-27T13:02:42.509Z,6.93
2022-12-27T13:05:41.240Z,9.43
2022-12-27T13:08:16.821Z,4.80
2022-12-27T13:11:12.181Z,5.90
2022-12-27T13:13:51.793Z,5.43
2022-12-27T13:16:29.263Z,4.83
2022-12-27T13:19:07.921Z,4.07
2022-12-27T13:21:54.723Z,5.77
2022-12-27T13:24:32.462Z,4.80
2022-12-27T13:27:25.816Z,6.90
2022-12-27T13:30:07.344Z,5.83
2022-12-27T13:32:56.422Z,4.40
2022-12-27T13:35:35.993Z,6.17
2022-12-27T13:38:23.178Z,5.47
2022-12-27T13:41:06.470Z,5.93
2022-12-27T13:44:10.538Z,7.43
2022-12-27T13:46:56.905Z,5.07
2022-12-27T13:49:46.618Z,6.43
2022-12-27T13:52:31.000Z,5.20
2022-12-27T13:55:31.968Z,5.40
2022-12-27T13:58:35.828Z,6.30
2022-12-27T14:01:21.910Z,5.30
2022-12-27T14:04:20.353Z,5.97
2022-12-27T14:06:59.709Z,5.63
2022-12-27T14:10:00.454Z,6.97
2022-12-27T14:12:56.036Z,7.70
2022-12-27T14:15:28.764Z,5.47
2022-12-27T14:18:15.014Z,5.77
2022-12-27T14:21:10.836Z,5.97
2022-12-27T14:23:55.327Z,12.77
2022-12-27T14:26:54.422Z,7.07
2022-12-27T14:30:20.249Z,9.27
2022-12-27T14:36:13.417Z,9.10
2022-12-27T14:39:16.318Z,8.47
2022-12-27T14:42:05.966Z,7.83
2022-12-27T14:45:17.488Z,8.37
2022-12-27T14:48:16.770Z,9.93
2022-12-27T14:51:59.478Z,10.67
2022-12-27T14:54:52.311Z,7.57
2022-12-27T14:57:52.912Z,8.23
2022-12-27T15:00:24.488Z,13.00
2022-12-27T15:03:09.328Z,20.27
2022-12-27T15:05:51.573Z,21.57
2022-12-27T15:08:46.803Z,9.57
2022-12-27T15:11:44.322Z,4.10
2022-12-27T15:14:37.336Z,2.93
2022-12-27T15:17:18.955Z,2.77
2022-12-27T15:20:09.981Z,3.57
2022-12-27T15:22:51.791Z,2.10
2022-12-27T15:25:29.653Z,2.57
2022-12-27T15:28:29.925Z,2.27
2022-12-27T15:31:07.605Z,3.37
2022-12-27T15:33:43.312Z,3.30
2022-12-27T15:36:16.722Z,2.60
2022-12-27T15:38:54.026Z,6.17
2022-12-27T15:41:27.717Z,4.97
2022-12-27T15:44:19.113Z,5.80
2022-12-27T15:47:18.245Z,7.10
2022-12-27T15:50:15.311Z,5.70
2022-12-27T15:56:32.938Z,7.83
2022-12-27T15:59:33.479Z,6.20
2022-12-27T16:02:31.968Z,4.30
2022-12-27T16:05:22.368Z,4.33
2022-12-27T16:07:53.416Z,3.50
2022-12-27T16:10:49.507Z,3.63
2022-12-27T16:13:46.347Z,4.87
2022-12-27T16:17:08.763Z,5.70
2022-12-27T16:20:10.805Z,3.67
2022-12-27T16:22:43.383Z,3.90
2022-12-27T16:25:31.127Z,2.83
2022-12-27T16:28:04.171Z,3.67
2022-12-27T16:30:47.935Z,3.23
2022-12-27T16:33:41.326Z,2.90
2022-12-27T16:36:33.769Z,2.80
2022-12-27T16:39:32.370Z,2.80
2022-12-27T16:42:06.907Z,2.70
2022-12-27T16:44:57.024Z,2.27
2022-12-27T16:48:11.511Z,2.87
2022-12-27T16:51:13.775Z,4.13
2022-12-27T16:54:04.196Z,4.67
2022-12-27T16:56:34.923Z,5.93
2022-12-27T17:00:00.375Z,5.47
2022-12-27T17:02:39.635Z,6.97
2022-12-27T17:05:44.771Z,7.80
2022-12-27T17:08:21.899Z,9.77
2022-12-27T17:11:35.391Z,7.63
2022-12-27T17:14:10.775Z,8.43
2022-12-27T17:16:44.647Z,10.70
2022-12-27T17:19:40.033Z,12.43
2022-12-27T17:22:15.001Z,33.27
2022-12-27T17:24:45.239Z,53.70
2022-12-27T17:28:05.744Z,4.77
2022-12-27T17:30:48.147Z,4.00
2022-12-27T17:33:36.497Z,6.63
2022-12-27T17:36:19.703Z,7.70
2022-12-27T17:39:01.539Z,8.83
2022-12-27T17:41:55.295Z,7.77
2022-12-27T17:44:41.358Z,6.13
2022-12-27T17:47:22.120Z,6.70
2022-12-27T17:49:52.907Z,5.43
2022-12-27T17:52:43.124Z,7.33
2022-12-27T17:55:38.528Z,12.03
2022-12-27T17:58:10.178Z,12.30
2022-12-27T18:00:44.245Z,11.47
2022-12-27T18:03:16.144Z,12.50
2022-12-27T18:05:49.396Z,14.03
2022-12-27T18:08:29.207Z,16.33
2022-12-27T18:10:58.571Z,9.40
2022-12-27T18:13:29.452Z,14.33
2022-12-27T18:15:59.021Z,32.77
2022-12-27T18:18:30.512Z,23.93
2022-12-27T18:21:04.176Z,24.67
2022-12-27T18:23:41.511Z,11.27
2022-12-27T18:26:13.962Z,11.03
2022-12-27T18:28:43.906Z,8.43
2022-12-27T18:31:18.223Z,10.90
2022-12-27T18:33:51.087Z,24.37
2022-12-27T18:36:28.170Z,22.57
2022-12-27T18:39:00.495Z,27.23
2022-12-27T18:41:35.682Z,25.30
2022-12-27T18:44:05.186Z,14.50
2022-12-27T18:46:38.569Z,12.70
2022-12-27T18:49:07.601Z,9.87
2022-12-27T18:51:39.494Z,4.73
2022-12-27T18:54:23.994Z,7.50
2022-12-27T18:56:54.591Z,7.00
2022-12-27T18:59:26.664Z,8.33
2022-12-27T19:01:56.305Z,6.37
2022-12-27T19:04:27.831Z,7.67
2022-12-27T19:07:09.210Z,4.67
2022-12-27T19:09:40.865Z,5.87
2022-12-27T19:12:25.061Z,8.70
2022-12-27T19:14:53.969Z,11.47
2022-12-27T19:17:24.892Z,14.37
2022-12-27T19:19:56.452Z,20.93
2022-12-27T19:22:58.460Z,12.37
2022-12-27T19:25:28.953Z,8.90
2022-12-27T19:28:07.249Z,10.90
2022-12-27T19:30:42.868Z,11.57
2022-12-27T19:33:17.278Z,13.33
2022-12-27T19:35:45.961Z,8.23
2022-12-27T19:38:22.706Z,8.33
2022-12-27T19:40:58.053Z,13.63
2022-12-27T19:43:35.824Z,9.80
2022-12-27T19:46:04.490Z,8.70
2022-12-27T19:48:33.117Z,7.43
2022-12-27T19:51:01.798Z,11.07
2022-12-27T19:53:35.080Z,8.00
2022-12-27T19:56:03.723Z,9.53
2022-12-27T19:58:32.770Z,11.50
2022-12-27T20:01:01.707Z,8.83
2022-12-27T20:03:30.538Z,13.93
2022-12-27T20:06:28.695Z,10.60
2022-12-27T20:08:58.925Z,10.37
2022-12-27T20:11:28.111Z,12.67
2022-12-27T20:13:56.782Z,9.40
2022-12-27T20:16:25.685Z,9.80
2022-12-27T20:18:54.347Z,8.70
2022-12-27T20:21:23.464Z,10.13
2022-12-27T20:23:52.565Z,9.90
2022-12-27T20:26:25.405Z,9.47
2022-12-27T20:28:54.802Z,8.30
2022-12-27T20:31:23.593Z,10.00
2022-12-27T20:33:53.676Z,9.17
2022-12-27T20:36:22.433Z,11.07
2022-12-27T20:38:51.361Z,12.60
2022-12-27T20:41:23.203Z,12.07
2022-12-27T20:43:56.542Z,13.57
2022-12-27T20:46:25.833Z,13.37
2022-12-27T20:48:55.527Z,19.47
2022-12-27T20:51:27.516Z,28.20
2022-12-27T20:53:57.133Z,20.63
2022-12-27T20:56:27.646Z,22.60
2022-12-27T20:58:56.595Z,14.70
2022-12-27T21:01:27.312Z,11.23
2022-12-27T21:04:11.094Z,13.83
2022-12-27T21:06:40.176Z,13.57
2022-12-27T21:09:09.745Z,11.80
2022-12-27T21:12:05.326Z,12.90
2022-12-27T21:14:34.393Z,12.90
2022-12-27T21:17:03.204Z,13.57
2022-12-27T21:19:32.053Z,13.67
2022-12-27T21:22:00.890Z,11.97
2022-12-27T21:24:29.545Z,16.40
2022-12-27T21:26:58.228Z,20.17
2022-12-27T21:29:28.282Z,16.77
2022-12-27T21:31:56.780Z,14.83
2022-12-27T21:34:25.500Z,23.50
2022-12-27T21:37:07.461Z,22.77
2022-12-27T21:39:40.179Z,22.10
2022-12-27T21:42:09.152Z,21.17
2022-12-27T21:44:39.454Z,15.23
2022-12-27T21:47:08.427Z,14.30
2022-12-27T21:49:40.561Z,15.70
2022-12-27T21:52:09.253Z,13.47
2022-12-27T21:54:38.091Z,14.33
2022-12-27T21:57:06.653Z,16.57
2022-12-27T21:59:35.525Z,10.13
2022-12-27T22:02:05.881Z,12.20
2022-12-27T22:04:34.652Z,12.47
2022-12-27T22:07:03.620Z,12.67
2022-12-27T22:09:32.259Z,13.23
2022-12-27T22:12:00.971Z,12.13
2022-12-27T22:14:36.673Z,16.07
2022-12-27T22:17:06.907Z,13.17
2022-12-27T22:20:01.106Z,14.63
2022-12-27T22:22:30.059Z,10.97
2022-12-27T22:24:58.657Z,13.80
2022-12-27T22:27:27.259Z,12.40
2022-12-27T22:29:57.328Z,12.97
2022-12-27T22:32:27.311Z,10.93
2022-12-27T22:34:56.046Z,8.73
2022-12-27T22:37:24.760Z,10.03
2022-12-27T22:39:53.756Z,9.07
2022-12-27T22:42:22.476Z,9.53
2022-12-27T22:44:51.100Z,10.07
2022-12-27T22:47:28.224Z,11.53
2022-12-27T22:49:58.932Z,12.37
2022-12-27T22:52:27.789Z,9.90
2022-12-27T22:55:04.443Z,11.63
2022-12-27T22:58:30.352Z,14.10
2022-12-27T23:00:59.442Z,12.00
2022-12-27T23:03:28.056Z,12.87
2022-12-27T23:06:05.877Z,9.77
2022-12-27T23:08:34.602Z,10.57
2022-12-27T23:11:04.177Z,11.27
2022-12-27T23:13:33.151Z,11.70
2022-12-27T23:16:05.119Z,11.77
2022-12-27T23:18:34.573Z,10.13
2022-12-27T23:21:20.008Z,10.53
2022-12-27T23:23:52.610Z,9.60
2022-12-27T23:26:23.789Z,9.37
2022-12-27T23:28:53.816Z,11.67
2022-12-27T23:31:24.431Z,11.03
2022-12-27T23:33:53.887Z,9.73
2022-12-27T23:36:24.502Z,12.43
2022-12-27T23:38:53.244Z,11.70
2022-12-27T23:41:23.939Z,11.23
2022-12-27T23:43:55.740Z,12.07
2022-12-27T23:46:28.346Z,10.27
2022-12-27T23:48:58.033Z,9.20
2022-12-27T23:51:29.538Z,10.83
2022-12-27T23:53:58.528Z,9.73
2022-12-27T23:56:29.428Z,9.40
2022-12-27T23:59:00.208Z,11.47
